sensor_id;sensor_type;location;lat;lon;timestamp;P1;durP1;ratioP1;P2;durP2;ratioP2
70545;SDS011;58098;51.680;5.134;2022-12-11T00:00:14;106.87;;;27.20;;
70545;SDS011;58098;51.680;5.134;2022-12-11T00:02:39;116.73;;;28.33;;
70545;SDS011;58098;51.680;5.134;2022-12-11T00:05:05;116.67;;;27.90;;
70545;SDS011;58098;51.680;5.134;2022-12-11T00:07:30;115.18;;;27.00;;
70545;SDS011;58098;51.680;5.134;2022-12-11T00:09:56;118.10;;;29.17;;
70545;SDS011;58098;51.680;5.134;2022-12-11T00:12:21;115.17;;;26.83;;
70545;SDS011;58098;51.680;5.134;2022-12-11T00:14:46;129.27;;;31.00;;
70545;SDS011;58098;51.680;5.134;2022-12-11T00:17:12;127.93;;;29.53;;
70545;SDS011;58098;51.680;5.134;2022-12-11T00:19:37;107.97;;;27.13;;
70545;SDS011;58098;51.680;5.134;2022-12-11T00:22:02;105.22;;;27.42;;
70545;SDS011;58098;51.680;5.134;2022-12-11T00:24:28;114.70;;;29.37;;
70545;SDS011;58098;51.680;5.134;2022-12-11T00:26:53;114.17;;;30.23;;
70545;SDS011;58098;51.680;5.134;2022-12-11T00:29:18;123.83;;;29.23;;
70545;SDS011;58098;51.680;5.134;2022-12-11T00:31:44;127.90;;;29.73;;
70545;SDS011;58098;51.680;5.134;2022-12-11T00:34:09;120.50;;;28.37;;
70545;SDS011;58098;51.680;5.134;2022-12-11T00:36:36;110.03;;;30.00;;
70545;SDS011;58098;51.680;5.134;2022-12-11T00:39:02;118.15;;;30.45;;
70545;SDS011;58098;51.680;5.134;2022-12-11T00:41:28;114.17;;;28.33;;
70545;SDS011;58098;51.680;5.134;2022-12-11T00:43:54;119.50;;;29.45;;
70545;SDS011;58098;51.680;5.134;2022-12-11T00:46:19;116.07;;;30.10;;
70545;SDS011;58098;51.680;5.134;2022-12-11T00:48:44;109.07;;;28.57;;
70545;SDS011;58098;51.680;5.134;2022-12-11T00:51:10;110.67;;;29.00;;
70545;SDS011;58098;51.680;5.134;2022-12-11T00:53:36;119.72;;;30.10;;
70545;SDS011;58098;51.680;5.134;2022-12-11T00:56:08;121.18;;;29.85;;
70545;SDS011;58098;51.680;5.134;2022-12-11T00:58:37;106.40;;;28.50;;
70545;SDS011;58098;51.680;5.134;2022-12-11T01:01:10;106.75;;;27.60;;
70545;SDS011;58098;51.680;5.134;2022-12-11T01:03:40;117.72;;;29.50;;
70545;SDS011;58098;51.680;5.134;2022-12-11T01:06:06;103.73;;;25.23;;
70545;SDS011;58098;51.680;5.134;2022-12-11T01:08:32;103.68;;;28.05;;
70545;SDS011;58098;51.680;5.134;2022-12-11T01:11:02;91.43;;;26.77;;
70545;SDS011;58098;51.680;5.134;2022-12-11T01:13:28;103.38;;;28.05;;
70545;SDS011;58098;51.680;5.134;2022-12-11T01:15:54;115.55;;;30.73;;
70545;SDS011;58098;51.680;5.134;2022-12-11T01:18:20;102.87;;;29.33;;
70545;SDS011;58098;51.680;5.134;2022-12-11T01:20:45;105.27;;;27.50;;
70545;SDS011;58098;51.680;5.134;2022-12-11T01:23:11;100.93;;;27.50;;
70545;SDS011;58098;51.680;5.134;2022-12-11T01:25:37;106.90;;;27.83;;
70545;SDS011;58098;51.680;5.134;2022-12-11T01:28:04;96.20;;;25.83;;
70545;SDS011;58098;51.680;5.134;2022-12-11T01:30:29;108.80;;;27.50;;
70545;SDS011;58098;51.680;5.134;2022-12-11T01:32:55;97.88;;;28.13;;
70545;SDS011;58098;51.680;5.134;2022-12-11T01:35:20;103.13;;;29.47;;
70545;SDS011;58098;51.680;5.134;2022-12-11T01:37:46;104.53;;;29.10;;
70545;SDS011;58098;51.680;5.134;2022-12-11T01:40:13;102.55;;;28.20;;
70545;SDS011;58098;51.680;5.134;2022-12-11T01:42:41;97.93;;;28.10;;
70545;SDS011;58098;51.680;5.134;2022-12-11T01:45:22;104.53;;;27.97;;
70545;SDS011;58098;51.680;5.134;2022-12-11T01:48:01;90.97;;;27.30;;
70545;SDS011;58098;51.680;5.134;2022-12-11T01:50:49;95.35;;;26.95;;
70545;SDS011;58098;51.680;5.134;2022-12-11T01:53:21;87.23;;;25.83;;
70545;SDS011;58098;51.680;5.134;2022-12-11T01:55:51;84.78;;;26.60;;
70545;SDS011;58098;51.680;5.134;2022-12-11T01:58:19;94.50;;;27.30;;
70545;SDS011;58098;51.680;5.134;2022-12-11T02:00:46;97.28;;;29.20;;
70545;SDS011;58098;51.680;5.134;2022-12-11T02:03:11;97.43;;;29.00;;
70545;SDS011;58098;51.680;5.134;2022-12-11T02:05:37;95.53;;;27.33;;
70545;SDS011;58098;51.680;5.134;2022-12-11T02:08:02;86.45;;;27.52;;
70545;SDS011;58098;51.680;5.134;2022-12-11T02:10:48;97.97;;;29.00;;
70545;SDS011;58098;51.680;5.134;2022-12-11T02:13:39;91.63;;;28.60;;
70545;SDS011;58098;51.680;5.134;2022-12-11T02:16:13;95.65;;;28.85;;
70545;SDS011;58098;51.680;5.134;2022-12-11T02:18:58;97.38;;;28.65;;
70545;SDS011;58098;51.680;5.134;2022-12-11T02:21:40;100.65;;;30.52;;
70545;SDS011;58098;51.680;5.134;2022-12-11T02:27:30;106.27;;;31.70;;
70545;SDS011;58098;51.680;5.134;2022-12-11T02:30:03;86.45;;;26.52;;
70545;SDS011;58098;51.680;5.134;2022-12-11T02:32:45;88.40;;;27.10;;
70545;SDS011;58098;51.680;5.134;2022-12-11T02:37:40;94.97;;;30.85;;
70545;SDS011;58098;51.680;5.134;2022-12-11T02:40:09;70.53;;;25.17;;
70545;SDS011;58098;51.680;5.134;2022-12-11T02:42:37;80.10;;;28.05;;
70545;SDS011;58098;51.680;5.134;2022-12-11T02:45:06;71.93;;;26.15;;
70545;SDS011;58098;51.680;5.134;2022-12-11T02:47:32;77.25;;;27.23;;
70545;SDS011;58098;51.680;5.134;2022-12-11T02:49:58;76.90;;;26.63;;
70545;SDS011;58098;51.680;5.134;2022-12-11T02:52:26;79.68;;;26.63;;
70545;SDS011;58098;51.680;5.134;2022-12-11T02:54:55;74.00;;;27.50;;
70545;SDS011;58098;51.680;5.134;2022-12-11T02:57:27;77.30;;;28.50;;
70545;SDS011;58098;51.680;5.134;2022-12-11T02:59:59;68.97;;;26.13;;
70545;SDS011;58098;51.680;5.134;2022-12-11T03:02:25;71.70;;;25.97;;
70545;SDS011;58098;51.680;5.134;2022-12-11T03:04:50;69.93;;;25.50;;
70545;SDS011;58098;51.680;5.134;2022-12-11T03:07:17;81.10;;;27.73;;
70545;SDS011;58098;51.680;5.134;2022-12-11T03:09:47;73.05;;;26.50;;
70545;SDS011;58098;51.680;5.134;2022-12-11T03:12:15;78.82;;;26.77;;
70545;SDS011;58098;51.680;5.134;2022-12-11T03:14:47;74.25;;;26.77;;
70545;SDS011;58098;51.680;5.134;2022-12-11T03:17:18;69.45;;;26.83;;
70545;SDS011;58098;51.680;5.134;2022-12-11T03:19:54;69.20;;;26.70;;
70545;SDS011;58098;51.680;5.134;2022-12-11T03:30:19;64.93;;;26.60;;
70545;SDS011;58098;51.680;5.134;2022-12-11T03:32:48;67.93;;;25.17;;
70545;SDS011;58098;51.680;5.134;2022-12-11T03:35:28;61.40;;;23.42;;
70545;SDS011;58098;51.680;5.134;2022-12-11T03:38:02;54.38;;;22.35;;
70545;SDS011;58098;51.680;5.134;2022-12-11T03:40:32;63.58;;;23.48;;
70545;SDS011;58098;51.680;5.134;2022-12-11T03:43:00;61.13;;;26.08;;
70545;SDS011;58098;51.680;5.134;2022-12-11T03:45:27;64.13;;;24.00;;
70545;SDS011;58098;51.680;5.134;2022-12-11T03:47:54;57.42;;;23.35;;
70545;SDS011;58098;51.680;5.134;2022-12-11T03:50:22;60.60;;;24.08;;
70545;SDS011;58098;51.680;5.134;2022-12-11T03:52:50;66.05;;;25.95;;
70545;SDS011;58098;51.680;5.134;2022-12-11T03:55:16;70.25;;;27.60;;
70545;SDS011;58098;51.680;5.134;2022-12-11T03:57:45;63.00;;;25.07;;
70545;SDS011;58098;51.680;5.134;2022-12-11T04:00:11;62.30;;;24.60;;
70545;SDS011;58098;51.680;5.134;2022-12-11T04:02:39;66.05;;;24.98;;
70545;SDS011;58098;51.680;5.134;2022-12-11T04:05:06;63.67;;;25.45;;
70545;SDS011;58098;51.680;5.134;2022-12-11T04:07:31;59.40;;;24.27;;
70545;SDS011;58098;51.680;5.134;2022-12-11T04:09:58;62.23;;;25.13;;
70545;SDS011;58098;51.680;5.134;2022-12-11T04:12:24;59.47;;;24.88;;
70545;SDS011;58098;51.680;5.134;2022-12-11T04:14:49;57.17;;;23.70;;
70545;SDS011;58098;51.680;5.134;2022-12-11T04:17:27;62.42;;;24.75;;
70545;SDS011;58098;51.680;5.134;2022-12-11T04:20:16;57.28;;;25.85;;
70545;SDS011;58098;51.680;5.134;2022-12-11T04:23:04;61.40;;;27.63;;
70545;SDS011;58098;51.680;5.134;2022-12-11T04:25:49;53.95;;;24.17;;
70545;SDS011;58098;51.680;5.134;2022-12-11T04:28:15;56.43;;;23.93;;
70545;SDS011;58098;51.680;5.134;2022-12-11T04:30:40;58.60;;;24.73;;
70545;SDS011;58098;51.680;5.134;2022-12-11T04:33:12;51.97;;;23.13;;
70545;SDS011;58098;51.680;5.134;2022-12-11T04:35:37;50.07;;;22.20;;
70545;SDS011;58098;51.680;5.134;2022-12-11T04:38:03;56.03;;;23.95;;
70545;SDS011;58098;51.680;5.134;2022-12-11T04:40:28;53.40;;;23.60;;
70545;SDS011;58098;51.680;5.134;2022-12-11T04:42:53;47.57;;;21.40;;
70545;SDS011;58098;51.680;5.134;2022-12-11T04:45:19;53.00;;;23.57;;
70545;SDS011;58098;51.680;5.134;2022-12-11T04:47:44;56.73;;;24.30;;
70545;SDS011;58098;51.680;5.134;2022-12-11T04:50:10;57.37;;;25.57;;
70545;SDS011;58098;51.680;5.134;2022-12-11T04:52:38;56.40;;;23.50;;
70545;SDS011;58098;51.680;5.134;2022-12-11T04:55:04;54.80;;;23.63;;
70545;SDS011;58098;51.680;5.134;2022-12-11T04:57:31;52.07;;;23.40;;
70545;SDS011;58098;51.680;5.134;2022-12-11T04:59:56;53.63;;;22.60;;
70545;SDS011;58098;51.680;5.134;2022-12-11T05:02:21;49.42;;;22.08;;
70545;SDS011;58098;51.680;5.134;2022-12-11T05:04:47;49.37;;;22.17;;
70545;SDS011;58098;51.680;5.134;2022-12-11T05:07:12;48.83;;;21.20;;
70545;SDS011;58098;51.680;5.134;2022-12-11T05:09:37;50.73;;;20.67;;
70545;SDS011;58098;51.680;5.134;2022-12-11T05:12:03;49.63;;;20.80;;
70545;SDS011;58098;51.680;5.134;2022-12-11T05:14:28;42.78;;;19.13;;
70545;SDS011;58098;51.680;5.134;2022-12-11T05:16:56;38.60;;;18.23;;
70545;SDS011;58098;51.680;5.134;2022-12-11T05:19:24;42.65;;;18.08;;
70545;SDS011;58098;51.680;5.134;2022-12-11T05:21:50;45.45;;;17.65;;
70545;SDS011;58098;51.680;5.134;2022-12-11T05:24:16;39.13;;;17.17;;
70545;SDS011;58098;51.680;5.134;2022-12-11T05:26:41;41.47;;;17.67;;
70545;SDS011;58098;51.680;5.134;2022-12-11T05:29:06;40.80;;;16.90;;
70545;SDS011;58098;51.680;5.134;2022-12-11T05:31:32;38.33;;;16.93;;
70545;SDS011;58098;51.680;5.134;2022-12-11T05:33:57;40.20;;;16.93;;
70545;SDS011;58098;51.680;5.134;2022-12-11T05:36:27;39.60;;;16.20;;
70545;SDS011;58098;51.680;5.134;2022-12-11T05:38:54;41.75;;;18.42;;
70545;SDS011;58098;51.680;5.134;2022-12-11T05:41:21;35.45;;;15.98;;
70545;SDS011;58098;51.680;5.134;2022-12-11T05:43:49;42.90;;;17.70;;
70545;SDS011;58098;51.680;5.134;2022-12-11T05:46:15;38.95;;;15.55;;
70545;SDS011;58098;51.680;5.134;2022-12-11T05:49:00;36.83;;;15.60;;
70545;SDS011;58098;51.680;5.134;2022-12-11T05:51:26;39.92;;;16.25;;
70545;SDS011;58098;51.680;5.134;2022-12-11T05:53:53;40.20;;;17.33;;
70545;SDS011;58098;51.680;5.134;2022-12-11T05:56:20;44.92;;;16.20;;
70545;SDS011;58098;51.680;5.134;2022-12-11T05:58:48;39.75;;;16.75;;
70545;SDS011;58098;51.680;5.134;2022-12-11T06:01:18;40.05;;;16.58;;
70545;SDS011;58098;51.680;5.134;2022-12-11T06:03:49;42.42;;;19.25;;
70545;SDS011;58098;51.680;5.134;2022-12-11T06:06:15;42.60;;;18.30;;
70545;SDS011;58098;51.680;5.134;2022-12-11T06:08:40;43.05;;;17.63;;
70545;SDS011;58098;51.680;5.134;2022-12-11T06:11:06;39.00;;;17.43;;
70545;SDS011;58098;51.680;5.134;2022-12-11T06:13:31;39.00;;;16.43;;
70545;SDS011;58098;51.680;5.134;2022-12-11T06:16:01;41.03;;;16.67;;
70545;SDS011;58098;51.680;5.134;2022-12-11T06:18:27;41.45;;;16.45;;
70545;SDS011;58098;51.680;5.134;2022-12-11T06:20:53;43.20;;;17.43;;
70545;SDS011;58098;51.680;5.134;2022-12-11T06:23:18;40.03;;;17.97;;
70545;SDS011;58098;51.680;5.134;2022-12-11T06:25:44;47.22;;;19.42;;
70545;SDS011;58098;51.680;5.134;2022-12-11T06:28:09;45.70;;;19.13;;
70545;SDS011;58098;51.680;5.134;2022-12-11T06:30:35;38.45;;;16.95;;
70545;SDS011;58098;51.680;5.134;2022-12-11T06:33:00;46.37;;;19.43;;
70545;SDS011;58098;51.680;5.134;2022-12-11T06:35:26;45.83;;;19.83;;
70545;SDS011;58098;51.680;5.134;2022-12-11T06:37:51;39.73;;;18.03;;
70545;SDS011;58098;51.680;5.134;2022-12-11T06:40:16;42.17;;;18.20;;
70545;SDS011;58098;51.680;5.134;2022-12-11T06:42:42;40.77;;;17.67;;
70545;SDS011;58098;51.680;5.134;2022-12-11T06:45:07;41.22;;;17.27;;
70545;SDS011;58098;51.680;5.134;2022-12-11T06:47:33;38.80;;;16.27;;
70545;SDS011;58098;51.680;5.134;2022-12-11T06:49:58;45.83;;;19.03;;
70545;SDS011;58098;51.680;5.134;2022-12-11T06:52:25;39.53;;;17.20;;
70545;SDS011;58098;51.680;5.134;2022-12-11T06:54:53;40.22;;;17.15;;
70545;SDS011;58098;51.680;5.134;2022-12-11T06:57:19;34.97;;;15.75;;
70545;SDS011;58098;51.680;5.134;2022-12-11T06:59:45;41.07;;;16.53;;
70545;SDS011;58098;51.680;5.134;2022-12-11T07:02:11;37.53;;;16.25;;
70545;SDS011;58098;51.680;5.134;2022-12-11T07:04:38;40.70;;;17.48;;
70545;SDS011;58098;51.680;5.134;2022-12-11T07:07:04;37.20;;;16.50;;
70545;SDS011;58098;51.680;5.134;2022-12-11T07:09:29;40.43;;;18.47;;
70545;SDS011;58098;51.680;5.134;2022-12-11T07:11:55;42.42;;;17.40;;
70545;SDS011;58098;51.680;5.134;2022-12-11T07:14:20;39.93;;;16.33;;
70545;SDS011;58098;51.680;5.134;2022-12-11T07:16:45;37.30;;;17.07;;
70545;SDS011;58098;51.680;5.134;2022-12-11T07:19:11;40.27;;;16.63;;
70545;SDS011;58098;51.680;5.134;2022-12-11T07:21:36;41.13;;;17.07;;
70545;SDS011;58098;51.680;5.134;2022-12-11T07:24:02;40.47;;;17.47;;
70545;SDS011;58098;51.680;5.134;2022-12-11T07:26:27;35.85;;;14.85;;
70545;SDS011;58098;51.680;5.134;2022-12-11T07:28:55;42.70;;;16.42;;
70545;SDS011;58098;51.680;5.134;2022-12-11T07:31:22;35.85;;;15.55;;
70545;SDS011;58098;51.680;5.134;2022-12-11T07:33:52;36.47;;;16.40;;
70545;SDS011;58098;51.680;5.134;2022-12-11T07:36:19;38.15;;;16.88;;
70545;SDS011;58098;51.680;5.134;2022-12-11T07:38:45;38.88;;;16.70;;
70545;SDS011;58098;51.680;5.134;2022-12-11T07:41:11;40.63;;;16.70;;
70545;SDS011;58098;51.680;5.134;2022-12-11T07:43:37;34.53;;;15.00;;
70545;SDS011;58098;51.680;5.134;2022-12-11T07:46:04;38.47;;;16.70;;
70545;SDS011;58098;51.680;5.134;2022-12-11T07:48:33;36.13;;;15.85;;
70545;SDS011;58098;51.680;5.134;2022-12-11T07:53:34;39.17;;;15.63;;
70545;SDS011;58098;51.680;5.134;2022-12-11T07:56:00;34.07;;;15.17;;
70545;SDS011;58098;51.680;5.134;2022-12-11T07:58:25;34.65;;;14.70;;
70545;SDS011;58098;51.680;5.134;2022-12-11T08:00:51;32.33;;;14.77;;
70545;SDS011;58098;51.680;5.134;2022-12-11T08:03:17;38.13;;;15.55;;
70545;SDS011;58098;51.680;5.134;2022-12-11T08:05:49;34.53;;;14.77;;
70545;SDS011;58098;51.680;5.134;2022-12-11T08:08:16;37.35;;;16.27;;
70545;SDS011;58098;51.680;5.134;2022-12-11T08:10:41;36.08;;;14.90;;
70545;SDS011;58098;51.680;5.134;2022-12-11T08:13:07;38.87;;;14.50;;
70545;SDS011;58098;51.680;5.134;2022-12-11T08:15:33;35.07;;;15.57;;
70545;SDS011;58098;51.680;5.134;2022-12-11T08:17:58;39.40;;;14.97;;
70545;SDS011;58098;51.680;5.134;2022-12-11T08:20:23;35.37;;;15.53;;
70545;SDS011;58098;51.680;5.134;2022-12-11T08:22:49;37.23;;;15.40;;
70545;SDS011;58098;51.680;5.134;2022-12-11T08:25:14;35.47;;;15.27;;
70545;SDS011;58098;51.680;5.134;2022-12-11T08:27:39;38.73;;;15.27;;
70545;SDS011;58098;51.680;5.134;2022-12-11T08:30:05;37.00;;;15.02;;
70545;SDS011;58098;51.680;5.134;2022-12-11T08:32:31;35.00;;;15.73;;
70545;SDS011;58098;51.680;5.134;2022-12-11T08:34:56;36.72;;;15.52;;
70545;SDS011;58098;51.680;5.134;2022-12-11T08:37:22;39.37;;;15.97;;
70545;SDS011;58098;51.680;5.134;2022-12-11T08:39:47;33.97;;;14.33;;
70545;SDS011;58098;51.680;5.134;2022-12-11T08:42:12;34.03;;;15.57;;
70545;SDS011;58098;51.680;5.134;2022-12-11T08:44:38;36.07;;;16.23;;
70545;SDS011;58098;51.680;5.134;2022-12-11T08:47:03;38.97;;;15.20;;
70545;SDS011;58098;51.680;5.134;2022-12-11T08:49:28;35.63;;;16.63;;
70545;SDS011;58098;51.680;5.134;2022-12-11T08:51:54;37.63;;;15.23;;
70545;SDS011;58098;51.680;5.134;2022-12-11T08:54:19;35.03;;;14.67;;
70545;SDS011;58098;51.680;5.134;2022-12-11T08:56:44;36.87;;;15.80;;
70545;SDS011;58098;51.680;5.134;2022-12-11T08:59:10;36.73;;;15.57;;
70545;SDS011;58098;51.680;5.134;2022-12-11T09:01:35;39.00;;;15.87;;
70545;SDS011;58098;51.680;5.134;2022-12-11T09:04:00;33.83;;;15.33;;
70545;SDS011;58098;51.680;5.134;2022-12-11T09:06:26;44.03;;;17.17;;
70545;SDS011;58098;51.680;5.134;2022-12-11T09:08:53;39.10;;;16.40;;
70545;SDS011;58098;51.680;5.134;2022-12-11T09:11:24;37.90;;;15.23;;
70545;SDS011;58098;51.680;5.134;2022-12-11T09:13:52;37.53;;;15.05;;
70545;SDS011;58098;51.680;5.134;2022-12-11T09:16:19;40.25;;;15.98;;
70545;SDS011;58098;51.680;5.134;2022-12-11T09:18:46;36.47;;;15.17;;
70545;SDS011;58098;51.680;5.134;2022-12-11T09:21:14;36.22;;;15.18;;
70545;SDS011;58098;51.680;5.134;2022-12-11T09:23:41;38.20;;;16.33;;
70545;SDS011;58098;51.680;5.134;2022-12-11T09:26:07;42.17;;;16.42;;
70545;SDS011;58098;51.680;5.134;2022-12-11T09:28:37;36.80;;;15.20;;
70545;SDS011;58098;51.680;5.134;2022-12-11T09:31:07;40.92;;;16.38;;
70545;SDS011;58098;51.680;5.134;2022-12-11T09:33:34;38.83;;;15.68;;
70545;SDS011;58098;51.680;5.134;2022-12-11T09:35:59;42.37;;;15.93;;
70545;SDS011;58098;51.680;5.134;2022-12-11T09:38:26;43.90;;;16.17;;
70545;SDS011;58098;51.680;5.134;2022-12-11T09:40:52;38.35;;;15.23;;
70545;SDS011;58098;51.680;5.134;2022-12-11T09:46:22;39.10;;;14.73;;
70545;SDS011;58098;51.680;5.134;2022-12-11T09:48:48;40.53;;;16.63;;
70545;SDS011;58098;51.680;5.134;2022-12-11T09:51:20;46.37;;;18.37;;
70545;SDS011;58098;51.680;5.134;2022-12-11T09:53:50;39.10;;;16.25;;
70545;SDS011;58098;51.680;5.134;2022-12-11T09:58:56;39.22;;;16.30;;
70545;SDS011;58098;51.680;5.134;2022-12-11T10:10:07;40.15;;;16.02;;
70545;SDS011;58098;51.680;5.134;2022-12-11T10:12:47;43.78;;;16.02;;
70545;SDS011;58098;51.680;5.134;2022-12-11T10:15:34;48.72;;;18.13;;
70545;SDS011;58098;51.680;5.134;2022-12-11T10:18:11;51.05;;;18.55;;
70545;SDS011;58098;51.680;5.134;2022-12-11T10:20:41;42.07;;;16.77;;
70545;SDS011;58098;51.680;5.134;2022-12-11T10:23:11;48.60;;;18.23;;
70545;SDS011;58098;51.680;5.134;2022-12-11T10:25:43;48.25;;;18.23;;
70545;SDS011;58098;51.680;5.134;2022-12-11T10:28:13;46.40;;;18.38;;
70545;SDS011;58098;51.680;5.134;2022-12-11T10:31:02;45.33;;;17.38;;
70545;SDS011;58098;51.680;5.134;2022-12-11T10:33:33;43.20;;;15.93;;
70545;SDS011;58098;51.680;5.134;2022-12-11T10:36:09;43.65;;;17.80;;
70545;SDS011;58098;51.680;5.134;2022-12-11T10:38:41;51.63;;;18.25;;
70545;SDS011;58098;51.680;5.134;2022-12-11T10:41:12;43.33;;;17.05;;
70545;SDS011;58098;51.680;5.134;2022-12-11T10:43:45;49.88;;;18.63;;
70545;SDS011;58098;51.680;5.134;2022-12-11T10:46:19;46.17;;;18.83;;
70545;SDS011;58098;51.680;5.134;2022-12-11T10:48:55;53.08;;;19.95;;
70545;SDS011;58098;51.680;5.134;2022-12-11T10:53:54;50.85;;;17.25;;
70545;SDS011;58098;51.680;5.134;2022-12-11T10:56:26;52.83;;;19.30;;
70545;SDS011;58098;51.680;5.134;2022-12-11T10:58:53;49.93;;;18.50;;
70545;SDS011;58098;51.680;5.134;2022-12-11T11:01:22;49.13;;;19.17;;
70545;SDS011;58098;51.680;5.134;2022-12-11T11:04:01;53.42;;;17.35;;
70545;SDS011;58098;51.680;5.134;2022-12-11T11:06:38;51.75;;;19.13;;
70545;SDS011;58098;51.680;5.134;2022-12-11T11:09:03;53.33;;;19.43;;
70545;SDS011;58098;51.680;5.134;2022-12-11T11:11:29;57.17;;;19.60;;
70545;SDS011;58098;51.680;5.134;2022-12-11T11:14:10;48.17;;;18.35;;
70545;SDS011;58098;51.680;5.134;2022-12-11T11:16:39;56.92;;;20.13;;
70545;SDS011;58098;51.680;5.134;2022-12-11T11:19:06;54.07;;;19.43;;
70545;SDS011;58098;51.680;5.134;2022-12-11T11:21:45;50.67;;;19.17;;
70545;SDS011;58098;51.680;5.134;2022-12-11T11:24:23;52.92;;;19.00;;
70545;SDS011;58098;51.680;5.134;2022-12-11T11:26:51;60.42;;;22.52;;
70545;SDS011;58098;51.680;5.134;2022-12-11T11:29:28;64.82;;;21.80;;
70545;SDS011;58098;51.680;5.134;2022-12-11T11:32:12;48.53;;;18.53;;
70545;SDS011;58098;51.680;5.134;2022-12-11T11:34:41;55.42;;;20.25;;
70545;SDS011;58098;51.680;5.134;2022-12-11T11:37:24;60.70;;;20.10;;
70545;SDS011;58098;51.680;5.134;2022-12-11T11:39:54;54.27;;;19.43;;
70545;SDS011;58098;51.680;5.134;2022-12-11T11:42:34;55.13;;;19.35;;
70545;SDS011;58098;51.680;5.134;2022-12-11T11:45:15;55.50;;;19.90;;
70545;SDS011;58098;51.680;5.134;2022-12-11T11:47:51;51.60;;;18.48;;
70545;SDS011;58098;51.680;5.134;2022-12-11T11:50:25;60.58;;;20.30;;
70545;SDS011;58098;51.680;5.134;2022-12-11T11:52:59;57.80;;;19.60;;
70545;SDS011;58098;51.680;5.134;2022-12-11T12:00:37;52.17;;;19.17;;
70545;SDS011;58098;51.680;5.134;2022-12-11T12:03:10;54.40;;;20.73;;
70545;SDS011;58098;51.680;5.134;2022-12-11T12:08:34;59.92;;;20.98;;
70545;SDS011;58098;51.680;5.134;2022-12-11T12:16:34;51.67;;;20.17;;
70545;SDS011;58098;51.680;5.134;2022-12-11T12:19:16;53.67;;;20.55;;
70545;SDS011;58098;51.680;5.134;2022-12-11T12:21:51;59.40;;;22.20;;
70545;SDS011;58098;51.680;5.134;2022-12-11T12:24:31;54.95;;;20.85;;
70545;SDS011;58098;51.680;5.134;2022-12-11T12:27:16;53.28;;;19.85;;
70545;SDS011;58098;51.680;5.134;2022-12-11T12:29:55;49.43;;;19.20;;
70545;SDS011;58098;51.680;5.134;2022-12-11T12:32:43;46.15;;;17.92;;
70545;SDS011;58098;51.680;5.134;2022-12-11T12:40:42;51.13;;;19.58;;
70545;SDS011;58098;51.680;5.134;2022-12-11T12:45:54;49.20;;;18.67;;
70545;SDS011;58098;51.680;5.134;2022-12-11T12:48:28;45.67;;;18.63;;
70545;SDS011;58098;51.680;5.134;2022-12-11T12:50:54;45.10;;;18.00;;
70545;SDS011;58098;51.680;5.134;2022-12-11T12:53:27;45.00;;;17.40;;
70545;SDS011;58098;51.680;5.134;2022-12-11T12:55:56;45.05;;;18.30;;
70545;SDS011;58098;51.680;5.134;2022-12-11T13:00:51;45.47;;;17.92;;
70545;SDS011;58098;51.680;5.134;2022-12-11T13:03:18;42.63;;;17.70;;
70545;SDS011;58098;51.680;5.134;2022-12-11T13:08:49;42.53;;;17.80;;
70545;SDS011;58098;51.680;5.134;2022-12-11T13:11:17;44.05;;;17.17;;
70545;SDS011;58098;51.680;5.134;2022-12-11T13:13:46;47.15;;;18.38;;
70545;SDS011;58098;51.680;5.134;2022-12-11T13:16:36;45.70;;;18.53;;
70545;SDS011;58098;51.680;5.134;2022-12-11T13:21:41;40.97;;;17.63;;
70545;SDS011;58098;51.680;5.134;2022-12-11T13:26:49;33.25;;;15.25;;
70545;SDS011;58098;51.680;5.134;2022-12-11T13:29:28;38.33;;;17.40;;
70545;SDS011;58098;51.680;5.134;2022-12-11T13:31:58;36.20;;;15.97;;
70545;SDS011;58098;51.680;5.134;2022-12-11T13:34:25;38.20;;;15.35;;
70545;SDS011;58098;51.680;5.134;2022-12-11T13:36:55;36.10;;;16.10;;
70545;SDS011;58098;51.680;5.134;2022-12-11T13:39:25;34.95;;;15.57;;
70545;SDS011;58098;51.680;5.134;2022-12-11T13:42:39;34.58;;;15.40;;
70545;SDS011;58098;51.680;5.134;2022-12-11T13:44:53;33.30;;;14.37;;
70545;SDS011;58098;51.680;5.134;2022-12-11T13:47:19;41.03;;;16.38;;
70545;SDS011;58098;51.680;5.134;2022-12-11T13:49:47;34.88;;;14.95;;
70545;SDS011;58098;51.680;5.134;2022-12-11T13:52:18;36.27;;;14.97;;
70545;SDS011;58098;51.680;5.134;2022-12-11T13:54:47;34.70;;;16.20;;
70545;SDS011;58098;51.680;5.134;2022-12-11T13:57:18;34.17;;;14.93;;
70545;SDS011;58098;51.680;5.134;2022-12-11T13:59:51;36.67;;;14.82;;
70545;SDS011;58098;51.680;5.134;2022-12-11T14:02:23;34.53;;;14.40;;
70545;SDS011;58098;51.680;5.134;2022-12-11T14:05:06;36.83;;;14.90;;
70545;SDS011;58098;51.680;5.134;2022-12-11T14:07:34;32.72;;;15.20;;
70545;SDS011;58098;51.680;5.134;2022-12-11T14:10:07;32.60;;;14.73;;
70545;SDS011;58098;51.680;5.134;2022-12-11T14:15:23;33.20;;;14.98;;
70545;SDS011;58098;51.680;5.134;2022-12-11T14:17:50;34.73;;;15.73;;
70545;SDS011;58098;51.680;5.134;2022-12-11T14:20:17;33.80;;;15.10;;
70545;SDS011;58098;51.680;5.134;2022-12-11T14:22:45;36.00;;;16.65;;
70545;SDS011;58098;51.680;5.134;2022-12-11T14:25:19;35.90;;;16.20;;
70545;SDS011;58098;51.680;5.134;2022-12-11T14:27:47;34.17;;;16.73;;
70545;SDS011;58098;51.680;5.134;2022-12-11T14:30:28;32.75;;;15.38;;
70545;SDS011;58098;51.680;5.134;2022-12-11T14:32:57;33.50;;;16.20;;
70545;SDS011;58098;51.680;5.134;2022-12-11T14:35:26;34.30;;;15.87;;
70545;SDS011;58098;51.680;5.134;2022-12-11T14:37:57;37.60;;;16.52;;
70545;SDS011;58098;51.680;5.134;2022-12-11T14:40:35;38.08;;;16.48;;
70545;SDS011;58098;51.680;5.134;2022-12-11T14:43:09;27.90;;;14.38;;
70545;SDS011;58098;51.680;5.134;2022-12-11T14:45:45;40.72;;;15.82;;
70545;SDS011;58098;51.680;5.134;2022-12-11T14:48:24;38.17;;;16.97;;
70545;SDS011;58098;51.680;5.134;2022-12-11T14:50:56;37.53;;;16.95;;
70545;SDS011;58098;51.680;5.134;2022-12-11T14:53:32;38.20;;;18.33;;
70545;SDS011;58098;51.680;5.134;2022-12-11T14:56:04;35.25;;;16.15;;
70545;SDS011;58098;51.680;5.134;2022-12-11T14:58:33;35.90;;;17.27;;
70545;SDS011;58098;51.680;5.134;2022-12-11T15:01:19;37.67;;;17.03;;
70545;SDS011;58098;51.680;5.134;2022-12-11T15:04:00;32.67;;;15.38;;
70545;SDS011;58098;51.680;5.134;2022-12-11T15:06:27;38.35;;;16.15;;
70545;SDS011;58098;51.680;5.134;2022-12-11T15:09:07;29.75;;;14.85;;
70545;SDS011;58098;51.680;5.134;2022-12-11T15:11:34;29.48;;;13.65;;
70545;SDS011;58098;51.680;5.134;2022-12-11T15:14:01;29.50;;;14.13;;
70545;SDS011;58098;51.680;5.134;2022-12-11T15:16:30;31.20;;;15.52;;
70545;SDS011;58098;51.680;5.134;2022-12-11T15:18:58;34.97;;;15.40;;
70545;SDS011;58098;51.680;5.134;2022-12-11T15:21:27;33.23;;;15.23;;
70545;SDS011;58098;51.680;5.134;2022-12-11T15:23:57;29.23;;;14.57;;
70545;SDS011;58098;51.680;5.134;2022-12-11T15:28:59;35.70;;;16.23;;
70545;SDS011;58098;51.680;5.134;2022-12-11T15:31:27;33.90;;;16.17;;
70545;SDS011;58098;51.680;5.134;2022-12-11T15:33:57;30.17;;;15.73;;
70545;SDS011;58098;51.680;5.134;2022-12-11T15:36:30;28.73;;;14.85;;
70545;SDS011;58098;51.680;5.134;2022-12-11T15:38:56;29.30;;;15.18;;
70545;SDS011;58098;51.680;5.134;2022-12-11T15:41:21;33.67;;;16.30;;
70545;SDS011;58098;51.680;5.134;2022-12-11T15:43:53;32.90;;;16.30;;